This is the latest recevied weather packets stored in our database for station/object E22ZMG-10. If no packets are shown the sender has not sent any weather packets the latest 10 day(s).
| Time | Temp. | Humidity | Pressure | Rain* | Wind** | Luminosity | Snow |
|---|---|---|---|---|---|---|---|
| 1778128881 | 35° C | 47% | 974 hPa | - | - | 0 W/m² | - |
| 1778128257 | 35.56° C | 47% | 974 hPa | - | - | 0 W/m² | - |
| 1778127633 | 35° C | 48% | 974 hPa | - | - | 0 W/m² | - |
| 1778127008 | 35° C | 48% | 974 hPa | - | - | 0 W/m² | - |
| 1778126384 | 35° C | 48% | 974 hPa | - | - | 0 W/m² | - |
| 1778125759 | 34.44° C | 48% | 974 hPa | - | - | 0 W/m² | - |
| 1778125135 | 34.44° C | 48% | 974 hPa | - | - | 0 W/m² | - |
| 1778124511 | 33.89° C | 46% | 975 hPa | - | - | 0 W/m² | - |
| 1778123887 | 34.44° C | 44% | 975 hPa | - | - | 0 W/m² | - |
| 1778123263 | 34.44° C | 44% | 975 hPa | - | - | 0 W/m² | - |
| 1778122638 | 34.44° C | 46% | 975 hPa | - | - | 0 W/m² | - |
| 1778122014 | 34.44° C | 48% | 975 hPa | - | - | 0 W/m² | - |
| 1778121390 | 34.44° C | 47% | 975 hPa | - | - | 0 W/m² | - |
| 1778120766 | 33.89° C | 50% | 975 hPa | - | - | 0 W/m² | - |
| 1778120141 | 32.78° C | 54% | 975 hPa | - | - | 0 W/m² | - |
| 1778119516 | 32.78° C | 53% | 975 hPa | - | - | 0 W/m² | - |
| 1778118892 | 32.78° C | 54% | 975 hPa | - | - | 0 W/m² | - |
| 1778118268 | 32.78° C | 54% | 975 hPa | - | - | 0 W/m² | - |
| 1778117644 | 32.78° C | 55% | 976 hPa | - | - | 0 W/m² | - |
| 1778117019 | 32.78° C | 55% | 976 hPa | - | - | 0 W/m² | - |
| 1778116395 | 32.78° C | 54% | 976 hPa | - | - | 0 W/m² | - |
| 1778115771 | 32.22° C | 55% | 975 hPa | - | - | 0 W/m² | - |
| 1778115146 | 32.78° C | 55% | 975 hPa | - | - | 0 W/m² | - |
| 1778114522 | 32.22° C | 56% | 975 hPa | - | - | 0 W/m² | - |
| 1778113898 | 32.22° C | 56% | 975 hPa | - | - | 0 W/m² | - |
* Rain since midnight (hover to see other rain measurements)
** Current wind speed in m/s (hover to see current wind gust speed)